createdAt,value
2019-05-25T00:04:31.588Z,59.62
2019-05-25T00:09:36.412Z,59.67
2019-05-25T00:14:41.122Z,59.53
2019-05-25T00:19:45.618Z,60.87
2019-05-25T00:24:50.164Z,60.95
2019-05-25T00:29:54.997Z,60.52
2019-05-25T00:34:59.822Z,60.46
2019-05-25T00:40:07.311Z,60.41
2019-05-25T00:45:12.051Z,60.90
2019-05-25T00:50:16.797Z,60.80
2019-05-25T00:55:21.339Z,60.65
2019-05-25T01:00:25.996Z,60.53
2019-05-25T01:05:31.637Z,59.93
2019-05-25T01:10:36.328Z,60.05
2019-05-25T01:15:40.999Z,60.55
2019-05-25T01:20:45.812Z,59.72
2019-05-25T01:25:50.370Z,59.24
2019-05-25T01:30:54.943Z,59.38
2019-05-25T01:35:59.565Z,59.29
2019-05-25T01:41:04.219Z,59.47
2019-05-25T01:46:08.697Z,59.79
2019-05-25T01:51:13.251Z,59.68
2019-05-25T01:56:17.910Z,60.42
2019-05-25T02:01:23.521Z,60.49
2019-05-25T02:06:29.053Z,60.42
2019-05-25T02:11:33.661Z,60.67
2019-05-25T02:16:38.306Z,60.43
2019-05-25T02:21:42.902Z,60.23
2019-05-25T02:26:47.460Z,60.17
2019-05-25T02:31:52.098Z,60.17
2019-05-25T02:36:56.731Z,60.05
2019-05-25T02:42:01.264Z,59.75
2019-05-25T02:47:05.898Z,59.87
2019-05-25T02:52:10.526Z,59.66
2019-05-25T02:57:15.061Z,59.52
2019-05-25T03:02:19.689Z,59.60
2019-05-25T03:07:24.741Z,59.72
2019-05-25T03:12:30.234Z,59.09
2019-05-25T03:17:34.787Z,59.07
2019-05-25T03:22:39.450Z,58.96
2019-05-25T03:27:44.023Z,58.94
2019-05-25T03:32:49.180Z,58.67
2019-05-25T03:37:54.667Z,58.62
2019-05-25T03:42:59.350Z,57.96
2019-05-25T03:48:04.173Z,58.01
2019-05-25T03:53:08.819Z,58.38
2019-05-25T03:58:13.497Z,58.09
2019-05-25T04:03:18.220Z,58.20
2019-05-25T04:08:22.788Z,57.72
2019-05-25T04:13:27.392Z,57.62
2019-05-25T04:18:32.067Z,57.05
2019-05-25T04:23:36.529Z,56.85
2019-05-25T04:28:41.042Z,56.47
2019-05-25T04:33:45.649Z,55.70
2019-05-25T04:38:50.496Z,54.95
2019-05-25T04:43:55.087Z,53.65
2019-05-25T04:48:59.718Z,52.94
2019-05-25T04:54:04.289Z,51.78
2019-05-25T04:59:08.830Z,51.48
2019-05-25T05:04:13.570Z,49.72
2019-05-25T05:09:18.172Z,46.31
2019-05-25T05:14:22.882Z,40.94
2019-05-25T05:19:27.375Z,40.51
2019-05-25T05:24:31.911Z,40.40
2019-05-25T05:29:36.595Z,39.57
2019-05-25T05:34:41.262Z,42.57
2019-05-25T05:39:46.669Z,44.30
2019-05-25T05:44:52.458Z,43.00
2019-05-25T05:49:59.293Z,43.56
2019-05-25T05:55:04.833Z,43.10
2019-05-25T06:00:12.091Z,42.43
2019-05-25T06:05:16.788Z,39.84
2019-05-25T06:10:21.774Z,41.32
2019-05-25T06:34:15.576Z,51.21
2019-05-25T07:39:41.399Z,43.88
2019-05-25T07:44:46.030Z,43.66
2019-05-25T07:49:50.795Z,46.07
2019-05-25T07:54:55.511Z,39.49
2019-05-25T08:00:01.876Z,36.92
2019-05-25T08:05:08.574Z,34.03
2019-05-25T08:10:13.849Z,34.56
2019-05-25T08:15:18.640Z,37.43
2019-05-25T08:20:23.294Z,40.05
2019-05-25T08:25:27.867Z,38.01
2019-05-25T08:30:32.619Z,32.91
2019-05-25T08:35:37.153Z,36.01
2019-05-25T08:40:41.734Z,39.11
2019-05-25T08:45:46.330Z,42.49
2019-05-25T08:50:50.860Z,44.20
2019-05-25T08:55:55.506Z,40.14
2019-05-25T09:01:00.257Z,36.72
2019-05-25T09:06:04.956Z,35.76
2019-05-25T09:11:09.680Z,37.84
2019-05-25T09:16:14.384Z,38.66
2019-05-25T09:21:18.881Z,36.17
2019-05-25T09:26:23.607Z,38.05
2019-05-25T09:31:28.426Z,41.27
2019-05-25T09:36:33.195Z,40.69
2019-05-25T09:41:37.955Z,38.77
2019-05-25T09:46:42.414Z,35.10
2019-05-25T09:51:48.742Z,36.43
2019-05-25T09:56:53.561Z,44.70
2019-05-25T10:01:58.302Z,59.29
2019-05-25T10:07:02.919Z,66.93
2019-05-25T10:12:07.600Z,70.09
2019-05-25T10:17:12.219Z,66.86
2019-05-25T10:22:16.781Z,54.06
2019-05-25T10:27:21.413Z,50.33
2019-05-25T10:32:26.053Z,49.16
2019-05-25T10:37:31.120Z,43.14
2019-05-25T10:42:35.854Z,38.71
2019-05-25T10:47:43.440Z,38.64
2019-05-25T10:52:47.992Z,40.21
2019-05-25T10:57:52.542Z,43.21
2019-05-25T11:02:57.040Z,42.33
2019-05-25T11:08:01.745Z,46.42
2019-05-25T11:13:07.449Z,47.37
2019-05-25T11:18:12.100Z,47.02
2019-05-25T11:23:19.209Z,45.95
2019-05-25T11:28:25.580Z,46.83
2019-05-25T11:33:30.234Z,48.73
2019-05-25T11:38:34.817Z,49.58
2019-05-25T11:43:39.546Z,50.69
2019-05-25T11:48:44.396Z,49.31
2019-05-25T11:53:51.836Z,49.42
2019-05-25T11:58:57.445Z,46.74
2019-05-25T12:04:01.935Z,44.71
2019-05-25T12:09:09.403Z,43.64
2019-05-25T12:14:14.028Z,41.41
2019-05-25T12:19:18.663Z,41.94
2019-05-25T12:24:23.215Z,41.46
2019-05-25T12:29:28.573Z,42.68
2019-05-25T12:34:33.176Z,43.12
2019-05-25T12:39:37.739Z,45.74
2019-05-25T12:44:43.347Z,46.71
2019-05-25T12:54:52.976Z,44.22
2019-05-25T13:00:12.224Z,42.19
2019-05-25T13:05:04.254Z,41.38
2019-05-25T13:10:09.982Z,40.45
2019-05-25T13:15:16.514Z,39.01
2019-05-25T13:20:21.135Z,39.35
2019-05-25T13:25:25.732Z,39.99
2019-05-25T13:30:30.456Z,40.14
2019-05-25T13:35:35.088Z,39.77
2019-05-25T13:40:39.802Z,38.85
2019-05-25T13:45:46.126Z,40.12
2019-05-25T13:50:50.976Z,40.26
2019-05-25T13:55:55.470Z,39.57
2019-05-25T14:01:00.059Z,40.77
2019-05-25T14:06:06.368Z,39.46
2019-05-25T14:11:10.881Z,40.33
2019-05-25T14:16:15.397Z,38.64
2019-05-25T14:21:20.051Z,38.34
2019-05-25T14:26:24.688Z,40.60
2019-05-25T14:31:44.492Z,38.97
2019-05-25T14:36:35.643Z,37.39
2019-05-25T14:41:41.398Z,36.04
2019-05-25T14:46:46.018Z,37.31
2019-05-25T14:51:50.667Z,37.78
2019-05-25T14:56:55.284Z,39.70
2019-05-25T15:02:02.854Z,39.99
2019-05-25T15:07:06.789Z,38.58
2019-05-25T15:12:11.484Z,38.75
2019-05-25T15:17:16.132Z,39.67
2019-05-25T15:22:20.891Z,40.13
2019-05-25T15:27:25.525Z,41.08
2019-05-25T15:32:30.149Z,39.81
2019-05-25T15:37:34.990Z,40.84
2019-05-25T15:42:39.635Z,40.25
2019-05-25T15:47:44.197Z,40.52
2019-05-25T15:52:48.836Z,41.01
2019-05-25T15:57:53.467Z,41.61
2019-05-25T16:02:58.117Z,43.34
2019-05-25T16:08:03.348Z,42.98
2019-05-25T16:13:08.140Z,42.58
2019-05-25T16:18:13.124Z,42.94
2019-05-25T16:23:17.845Z,44.15
2019-05-25T16:28:22.424Z,44.17
2019-05-25T16:33:27.083Z,44.33
2019-05-25T16:38:32.007Z,44.70
2019-05-25T16:43:36.711Z,44.35
2019-05-25T16:48:41.335Z,44.24
2019-05-25T16:53:46.354Z,44.75
2019-05-25T16:58:50.933Z,43.25
2019-05-25T17:03:55.624Z,43.32
2019-05-25T17:09:00.189Z,44.04
2019-05-25T17:14:04.917Z,44.17
2019-05-25T17:19:09.772Z,44.21
2019-05-25T17:24:14.424Z,44.51
2019-05-25T17:29:19.001Z,45.35
2019-05-25T17:34:23.657Z,45.92
2019-05-25T17:39:28.244Z,46.00
2019-05-25T17:44:32.965Z,47.73
2019-05-25T17:49:37.551Z,49.12
2019-05-25T17:54:42.171Z,50.73
2019-05-25T17:59:46.894Z,52.32
2019-05-25T18:04:51.490Z,53.68
2019-05-25T18:09:56.021Z,53.80
2019-05-25T18:15:00.642Z,54.00
2019-05-25T18:20:09.963Z,55.04
2019-05-25T18:25:14.961Z,55.06
2019-05-25T18:30:20.145Z,55.46
2019-05-25T18:35:24.857Z,55.83
2019-05-25T18:40:29.711Z,55.85
2019-05-25T18:45:34.393Z,57.19
2019-05-25T18:50:38.848Z,57.19
2019-05-25T18:55:43.435Z,56.93
2019-05-25T19:00:48.073Z,57.06
2019-05-25T19:05:52.580Z,57.19
2019-05-25T19:10:57.292Z,57.88
2019-05-25T19:16:01.938Z,57.92
2019-05-25T19:21:06.550Z,57.72
2019-05-25T19:26:11.138Z,57.71
2019-05-25T19:31:15.683Z,57.92
2019-05-25T19:36:20.163Z,58.14
2019-05-25T19:41:26.543Z,58.17
2019-05-25T19:46:31.183Z,57.67
2019-05-25T19:51:35.806Z,58.71
2019-05-25T19:56:40.300Z,58.57
2019-05-25T20:01:44.948Z,58.66
2019-05-25T20:06:49.577Z,58.73
2019-05-25T20:11:54.156Z,58.80
2019-05-25T20:16:58.749Z,59.28
2019-05-25T20:22:03.427Z,58.85
2019-05-25T20:27:08.128Z,58.99
2019-05-25T20:32:12.649Z,58.43
2019-05-25T20:37:17.265Z,58.68
2019-05-25T20:42:21.848Z,58.31
2019-05-25T20:47:26.330Z,58.56
2019-05-25T20:52:31.222Z,58.75
2019-05-25T20:57:35.930Z,58.96
2019-05-25T21:02:41.541Z,58.91
2019-05-25T21:07:46.226Z,58.27
2019-05-25T21:12:51.895Z,58.42
2019-05-25T21:17:56.790Z,59.04
2019-05-25T21:23:01.403Z,59.76
2019-05-25T21:28:06.102Z,59.60
2019-05-25T21:33:12.396Z,59.80
2019-05-25T21:38:17.306Z,60.37
2019-05-25T21:43:22.076Z,60.64
2019-05-25T21:48:26.723Z,60.69
2019-05-25T21:53:31.484Z,61.00
2019-05-25T21:58:36.077Z,61.41
2019-05-25T22:03:40.692Z,61.60
2019-05-25T22:08:45.460Z,61.73
2019-05-25T22:13:50.079Z,61.81
2019-05-25T22:18:55.009Z,62.46
2019-05-25T22:23:59.912Z,62.46
2019-05-25T22:29:05.639Z,62.71
2019-05-25T22:34:10.260Z,65.25
2019-05-25T22:39:16.592Z,65.57
2019-05-25T22:44:21.287Z,66.51
2019-05-25T22:49:25.781Z,67.15
2019-05-25T22:54:30.257Z,66.99
2019-05-25T22:59:34.927Z,67.28
2019-05-25T23:04:39.412Z,68.10
2019-05-25T23:09:45.007Z,68.80
2019-05-25T23:14:49.603Z,68.64
2019-05-25T23:19:56.571Z,69.18
2019-05-25T23:25:01.145Z,68.64
2019-05-25T23:30:07.450Z,69.24
2019-05-25T23:35:13.141Z,69.71
2019-05-25T23:40:18.396Z,69.89
2019-05-25T23:45:23.030Z,69.47
2019-05-25T23:50:27.603Z,69.69
2019-05-25T23:55:32.235Z,69.21
